createdAt,value
2019-03-21T00:00:55.496Z,1027.67
2019-03-21T00:01:55.484Z,1027.73
2019-03-21T00:02:55.482Z,1027.74
2019-03-21T00:03:55.463Z,1027.69
2019-03-21T00:04:55.451Z,1027.68
2019-03-21T00:05:55.440Z,1027.69
2019-03-21T00:06:55.429Z,1027.68
2019-03-21T00:07:55.451Z,1027.73
2019-03-21T00:08:55.408Z,1027.71
2019-03-21T00:09:55.397Z,1027.69
2019-03-21T00:10:55.386Z,1027.74
2019-03-21T00:11:55.377Z,1027.74
2019-03-21T00:12:55.366Z,1027.66
2019-03-21T00:14:06.419Z,1027.69
2019-03-21T00:14:56.344Z,1027.72
2019-03-21T00:15:55.337Z,1027.73
2019-03-21T00:16:55.352Z,1027.75
2019-03-21T00:17:55.310Z,1027.71
2019-03-21T00:18:55.309Z,1027.79
2019-03-21T00:19:55.289Z,1027.78
2019-03-21T00:20:55.279Z,1027.75
2019-03-21T00:21:55.272Z,1027.74
2019-03-21T00:22:55.258Z,1027.76
2019-03-21T00:23:55.257Z,1027.77
2019-03-21T00:24:55.236Z,1027.77
2019-03-21T00:25:55.226Z,1027.74
2019-03-21T00:26:55.216Z,1027.82
2019-03-21T00:27:55.208Z,1027.70
2019-03-21T00:28:55.201Z,1027.69
2019-03-21T00:29:55.182Z,1027.72
2019-03-21T00:30:55.171Z,1027.70
2019-03-21T00:31:55.169Z,1027.68
2019-03-21T00:32:55.150Z,1027.70
2019-03-21T00:33:55.154Z,1027.66
2019-03-21T00:34:55.129Z,1027.71
2019-03-21T00:35:55.118Z,1027.74
2019-03-21T00:36:55.108Z,1027.74
2019-03-21T00:37:55.097Z,1027.75
2019-03-21T00:38:55.097Z,1027.80
2019-03-21T00:39:55.080Z,1027.69
2019-03-21T00:40:55.065Z,1027.79
2019-03-21T00:41:55.053Z,1027.83
2019-03-21T00:42:55.043Z,1027.83
2019-03-21T00:43:55.046Z,1027.88
2019-03-21T00:44:55.022Z,1027.83
2019-03-21T00:45:55.011Z,1027.85
2019-03-21T00:46:55.009Z,1027.83
2019-03-21T00:47:54.989Z,1027.87
2019-03-21T00:48:55.290Z,1027.81
2019-03-21T00:49:54.967Z,1027.83
2019-03-21T00:50:54.967Z,1027.87
2019-03-21T00:51:54.996Z,1027.83
2019-03-21T00:52:54.938Z,1027.85
2019-03-21T00:53:54.926Z,1027.81
2019-03-21T00:54:54.923Z,1027.83
2019-03-21T00:55:54.903Z,1027.86
2019-03-21T00:56:54.899Z,1027.80
2019-03-21T00:57:54.883Z,1027.79
2019-03-21T00:58:54.873Z,1027.79
2019-03-21T00:59:54.871Z,1027.71
2019-03-21T01:00:54.853Z,1027.74
2019-03-21T01:01:54.842Z,1027.76
2019-03-21T01:02:54.829Z,1027.66
2019-03-21T01:03:54.818Z,1027.70
2019-03-21T01:04:54.816Z,1027.66
2019-03-21T01:05:54.799Z,1027.65
2019-03-21T01:06:54.790Z,1027.64
2019-03-21T01:07:54.780Z,1027.61
2019-03-21T01:08:54.766Z,1027.63
2019-03-21T01:09:54.763Z,1027.59
2019-03-21T01:10:54.746Z,1027.64
2019-03-21T01:11:54.735Z,1027.65
2019-03-21T01:12:54.722Z,1027.67
2019-03-21T01:13:54.712Z,1027.63
2019-03-21T01:14:54.711Z,1027.72
2019-03-21T01:15:54.691Z,1027.70
2019-03-21T01:16:54.680Z,1027.71
2019-03-21T01:17:54.670Z,1027.74
2019-03-21T01:18:54.662Z,1027.73
2019-03-21T01:19:54.659Z,1027.73
2019-03-21T01:20:54.639Z,1027.76
2019-03-21T01:21:54.627Z,1027.72
2019-03-21T01:22:54.617Z,1027.70
2019-03-21T01:23:54.605Z,1027.70
2019-03-21T01:24:54.606Z,1027.70
2019-03-21T01:25:54.584Z,1027.65
2019-03-21T01:26:54.573Z,1027.69
2019-03-21T01:27:54.562Z,1027.68
2019-03-21T01:28:54.551Z,1027.63
2019-03-21T01:29:54.614Z,1027.63
2019-03-21T01:30:54.531Z,1027.64
2019-03-21T01:31:54.716Z,1027.58
2019-03-21T01:32:54.513Z,1027.61
2019-03-21T01:33:54.498Z,1027.57
2019-03-21T01:34:54.496Z,1027.66
2019-03-21T01:35:54.484Z,1027.61
2019-03-21T01:36:54.471Z,1027.59
2019-03-21T01:37:54.457Z,1027.60
2019-03-21T01:38:54.444Z,1027.57
2019-03-21T01:39:54.444Z,1027.53
2019-03-21T01:40:54.424Z,1027.51
2019-03-21T01:41:54.418Z,1027.50
2019-03-21T01:42:54.406Z,1027.50
2019-03-21T01:43:54.394Z,1027.56
2019-03-21T01:44:54.392Z,1027.51
2019-03-21T01:45:54.370Z,1027.48
2019-03-21T01:46:54.365Z,1027.54
2019-03-21T01:47:54.349Z,1027.50
2019-03-21T01:48:54.342Z,1027.54
2019-03-21T01:49:54.338Z,1027.49
2019-03-21T01:50:54.317Z,1027.49
2019-03-21T01:51:54.308Z,1027.46
2019-03-21T01:52:54.299Z,1027.49
2019-03-21T01:53:54.291Z,1027.46
2019-03-21T01:54:54.285Z,1027.42
2019-03-21T01:55:54.267Z,1027.43
2019-03-21T01:56:54.257Z,1027.44
2019-03-21T01:57:54.244Z,1027.41
2019-03-21T01:58:54.233Z,1027.41
2019-03-21T01:59:54.236Z,1027.42
2019-03-21T02:00:54.214Z,1027.42
2019-03-21T02:01:54.202Z,1027.40
2019-03-21T02:02:54.191Z,1027.39
2019-03-21T02:03:54.180Z,1027.35
2019-03-21T02:04:54.177Z,1027.38
2019-03-21T02:05:54.157Z,1027.38
2019-03-21T02:06:54.150Z,1027.36
2019-03-21T02:07:54.142Z,1027.38
2019-03-21T02:08:54.126Z,1027.41
2019-03-21T02:09:54.126Z,1027.36
2019-03-21T02:10:54.105Z,1027.35
2019-03-21T02:11:54.097Z,1027.35
2019-03-21T02:12:54.087Z,1027.34
2019-03-21T02:13:54.073Z,1027.34
2019-03-21T02:14:54.087Z,1027.32
2019-03-21T02:15:54.051Z,1027.27
2019-03-21T02:16:54.043Z,1027.29
2019-03-21T02:17:54.031Z,1027.20
2019-03-21T02:18:54.017Z,1027.19
2019-03-21T02:19:54.008Z,1027.17
2019-03-21T02:20:54.004Z,1027.21
2019-03-21T02:21:53.987Z,1027.26
2019-03-21T02:22:53.981Z,1027.23
2019-03-21T02:23:53.965Z,1027.26
2019-03-21T02:24:53.955Z,1027.25
2019-03-21T02:25:53.952Z,1027.25
2019-03-21T02:26:53.932Z,1027.26
2019-03-21T02:27:53.922Z,1027.25
2019-03-21T02:28:53.911Z,1027.28
2019-03-21T02:29:53.904Z,1027.30
2019-03-21T02:30:53.909Z,1027.27
2019-03-21T02:31:53.880Z,1027.27
2019-03-21T02:32:53.868Z,1027.28
2019-03-21T02:33:53.859Z,1027.24
2019-03-21T02:34:53.848Z,1027.17
2019-03-21T02:35:53.849Z,1027.22
2019-03-21T02:36:53.826Z,1027.22
2019-03-21T02:37:53.815Z,1027.20
2019-03-21T02:38:53.808Z,1027.19
2019-03-21T02:39:59.686Z,1027.16
2019-03-21T02:40:54.798Z,1027.19
2019-03-21T02:41:53.775Z,1027.17
2019-03-21T02:42:53.761Z,1027.19
2019-03-21T02:43:53.757Z,1027.16
2019-03-21T02:45:07.550Z,1027.16
2019-03-21T02:45:54.738Z,1027.22
2019-03-21T02:46:53.719Z,1027.19
2019-03-21T02:47:53.719Z,1027.16
2019-03-21T02:48:53.698Z,1027.13
2019-03-21T02:49:53.688Z,1027.14
2019-03-21T02:50:53.683Z,1027.14
2019-03-21T02:51:53.674Z,1027.10
2019-03-21T02:52:53.662Z,1027.16
2019-03-21T02:53:53.647Z,1027.13
2019-03-21T02:54:53.633Z,1027.15
2019-03-21T02:55:53.631Z,1027.18
2019-03-21T02:56:53.613Z,1027.20
2019-03-21T02:57:53.610Z,1027.15
2019-03-21T02:58:53.600Z,1027.17
2019-03-21T02:59:53.589Z,1027.16
2019-03-21T03:00:53.605Z,1027.11
2019-03-21T03:01:53.561Z,1027.13
2019-03-21T03:02:53.548Z,1027.20
2019-03-21T03:03:53.537Z,1027.18
2019-03-21T03:04:53.527Z,1027.20
2019-03-21T03:05:53.529Z,1027.19
2019-03-21T03:06:53.505Z,1027.15
2019-03-21T03:07:53.496Z,1027.20
2019-03-21T03:08:53.486Z,1027.17
2019-03-21T03:09:53.473Z,1027.23
2019-03-21T03:10:53.470Z,1027.20
2019-03-21T03:11:53.452Z,1027.23
2019-03-21T03:12:53.454Z,1027.19
2019-03-21T03:13:53.454Z,1027.20
2019-03-21T03:14:53.418Z,1027.24
2019-03-21T03:15:53.425Z,1027.22
2019-03-21T03:16:53.404Z,1027.28
2019-03-21T03:17:53.390Z,1027.29
2019-03-21T03:18:53.377Z,1027.31
2019-03-21T03:19:53.369Z,1027.26
2019-03-21T03:20:53.375Z,1027.31
2019-03-21T03:21:53.345Z,1027.32
2019-03-21T03:22:53.334Z,1027.34
2019-03-21T03:23:53.323Z,1027.34
2019-03-21T03:24:53.312Z,1027.32
2019-03-21T03:25:53.320Z,1027.28
2019-03-21T03:26:53.294Z,1027.39
2019-03-21T03:27:53.279Z,1027.32
2019-03-21T03:28:53.268Z,1027.30
2019-03-21T03:29:53.258Z,1027.30
2019-03-21T03:30:53.275Z,1027.22
2019-03-21T03:31:53.241Z,1027.28
2019-03-21T03:32:53.226Z,1027.32
2019-03-21T03:33:53.215Z,1027.27
2019-03-21T03:34:53.209Z,1027.33
2019-03-21T03:35:53.193Z,1027.30
2019-03-21T03:36:53.192Z,1027.35
2019-03-21T03:37:53.171Z,1027.30
2019-03-21T03:38:53.161Z,1027.32
2019-03-21T03:39:53.151Z,1027.31
2019-03-21T03:40:53.139Z,1027.38
2019-03-21T03:41:53.138Z,1027.44
2019-03-21T03:42:53.121Z,1027.31
2019-03-21T03:43:53.114Z,1027.28
2019-03-21T03:44:53.096Z,1027.29
2019-03-21T03:45:53.097Z,1027.29
2019-03-21T03:46:53.085Z,1027.27
2019-03-21T03:47:53.065Z,1027.26
2019-03-21T03:48:53.054Z,1027.23
2019-03-21T03:49:53.043Z,1027.29
2019-03-21T03:50:53.045Z,1027.28
2019-03-21T03:51:53.032Z,1027.26
2019-03-21T03:52:53.014Z,1027.30
2019-03-21T03:53:53.001Z,1027.28
2019-03-21T03:54:52.991Z,1027.27
2019-03-21T03:55:52.980Z,1027.29
2019-03-21T03:56:52.978Z,1027.31
2019-03-21T03:57:52.957Z,1027.35
2019-03-21T03:58:52.950Z,1027.37
2019-03-21T03:59:52.938Z,1027.38
2019-03-21T04:00:52.951Z,1027.42
2019-03-21T04:01:52.928Z,1027.39
2019-03-21T04:02:52.905Z,1027.40
2019-03-21T04:03:52.904Z,1027.41
2019-03-21T04:04:52.884Z,1027.40
2019-03-21T04:05:52.878Z,1027.34
2019-03-21T04:06:52.885Z,1027.41
2019-03-21T04:07:52.851Z,1027.43
2019-03-21T04:08:52.846Z,1027.40
2019-03-21T04:09:52.828Z,1027.37
2019-03-21T04:10:52.823Z,1027.41
2019-03-21T04:11:52.824Z,1027.38
2019-03-21T04:12:52.799Z,1027.43
2019-03-21T04:13:52.868Z,1027.43
2019-03-21T04:14:52.776Z,1027.46
2019-03-21T04:15:53.940Z,1027.44
2019-03-21T04:16:52.765Z,1027.45
2019-03-21T04:17:52.744Z,1027.47
2019-03-21T04:18:52.736Z,1027.50
2019-03-21T04:19:52.725Z,1027.45
2019-03-21T04:20:52.719Z,1027.54
2019-03-21T04:21:52.714Z,1027.51
2019-03-21T04:22:52.692Z,1027.48
2019-03-21T04:23:52.680Z,1027.46
2019-03-21T04:24:52.672Z,1027.52
2019-03-21T04:25:52.659Z,1027.50
2019-03-21T04:26:52.655Z,1027.48
2019-03-21T04:27:52.638Z,1027.55
2019-03-21T04:28:52.626Z,1027.55
2019-03-21T04:29:52.615Z,1027.54
2019-03-21T04:30:52.607Z,1027.51
2019-03-21T04:31:52.602Z,1027.54
2019-03-21T04:32:52.593Z,1027.56
2019-03-21T04:33:52.574Z,1027.53
2019-03-21T04:34:52.561Z,1027.57
2019-03-21T04:35:52.550Z,1027.54
2019-03-21T04:36:52.547Z,1027.48
2019-03-21T04:37:52.531Z,1027.53
2019-03-21T04:38:52.519Z,1027.52
2019-03-21T04:39:52.513Z,1027.47
2019-03-21T04:40:52.497Z,1027.47
2019-03-21T04:41:52.500Z,1027.45
2019-03-21T04:42:52.474Z,1027.53
2019-03-21T04:43:52.474Z,1027.48
2019-03-21T04:44:52.454Z,1027.52
2019-03-21T04:46:02.868Z,1027.46
2019-03-21T04:46:53.445Z,1027.52
2019-03-21T04:47:52.419Z,1027.52
2019-03-21T04:48:52.409Z,1027.46
2019-03-21T04:49:52.405Z,1027.55
2019-03-21T04:50:52.388Z,1027.50
2019-03-21T04:51:52.385Z,1027.51
2019-03-21T04:52:52.369Z,1027.51
2019-03-21T04:53:53.477Z,1027.49
2019-03-21T04:54:52.346Z,1027.52
2019-03-21T04:55:52.338Z,1027.49
2019-03-21T04:56:52.332Z,1027.45
2019-03-21T04:57:52.314Z,1027.57
2019-03-21T04:58:52.303Z,1027.56
2019-03-21T04:59:52.296Z,1027.58
2019-03-21T05:00:52.309Z,1027.58
2019-03-21T05:01:52.306Z,1027.56
2019-03-21T05:02:52.262Z,1027.56
2019-03-21T05:03:52.250Z,1027.58
2019-03-21T05:04:52.239Z,1027.60
2019-03-21T05:05:52.226Z,1027.59
2019-03-21T05:06:52.219Z,1027.61
2019-03-21T05:07:52.216Z,1027.59
2019-03-21T05:08:52.193Z,1027.55
2019-03-21T05:09:52.185Z,1027.61
2019-03-21T05:10:52.174Z,1027.56
2019-03-21T05:11:52.161Z,1027.56
2019-03-21T05:12:52.162Z,1027.59
2019-03-21T05:13:52.142Z,1027.57
2019-03-21T05:14:52.128Z,1027.60
2019-03-21T05:15:52.123Z,1027.61
2019-03-21T05:16:52.106Z,1027.54
2019-03-21T05:17:52.110Z,1027.52
2019-03-21T05:18:52.088Z,1027.56
2019-03-21T05:19:52.076Z,1027.54
2019-03-21T05:20:52.064Z,1027.52
2019-03-21T05:21:52.055Z,1027.48
2019-03-21T05:22:52.057Z,1027.56
2019-03-21T05:23:52.035Z,1027.57
2019-03-21T05:24:52.026Z,1027.57
2019-03-21T05:25:52.018Z,1027.45
2019-03-21T05:26:52.001Z,1027.44
2019-03-21T05:27:52.000Z,1027.43
2019-03-21T05:28:51.988Z,1027.46
2019-03-21T05:29:51.973Z,1027.48
2019-03-21T05:30:51.957Z,1027.47
2019-03-21T05:31:51.947Z,1027.47
2019-03-21T05:32:51.944Z,1027.51
2019-03-21T05:33:51.931Z,1027.44
2019-03-21T05:34:51.913Z,1027.46
2019-03-21T05:35:51.906Z,1027.42
2019-03-21T05:36:51.890Z,1027.49
2019-03-21T05:37:51.891Z,1027.52
2019-03-21T05:38:51.880Z,1027.49
2019-03-21T05:39:51.859Z,1027.51
2019-03-21T05:40:51.848Z,1027.45
2019-03-21T05:41:51.840Z,1027.50
2019-03-21T05:42:51.836Z,1027.48
2019-03-21T05:43:51.817Z,1027.47
2019-03-21T05:44:51.805Z,1027.47
2019-03-21T05:45:51.798Z,1027.49
2019-03-21T05:46:51.783Z,1027.43
2019-03-21T05:47:58.813Z,1027.50
2019-03-21T05:48:51.762Z,1027.52
2019-03-21T05:49:51.750Z,1027.48
2019-03-21T05:50:51.741Z,1027.46
2019-03-21T05:51:51.733Z,1027.52
2019-03-21T05:52:51.728Z,1027.49
2019-03-21T05:53:51.711Z,1027.49
2019-03-21T05:54:51.697Z,1027.58
2019-03-21T05:55:51.690Z,1027.56
2019-03-21T05:56:51.678Z,1027.62
2019-03-21T05:57:51.679Z,1027.61
2019-03-21T05:58:51.654Z,1027.62
2019-03-21T05:59:51.644Z,1027.60
2019-03-21T06:00:51.646Z,1027.61
2019-03-21T06:01:51.623Z,1027.66
2019-03-21T06:02:51.620Z,1027.66
2019-03-21T06:03:51.604Z,1027.67
2019-03-21T06:04:51.592Z,1027.70
2019-03-21T06:05:51.580Z,1027.69
2019-03-21T06:06:51.567Z,1027.67
2019-03-21T06:07:51.567Z,1027.69
2019-03-21T06:08:51.547Z,1027.69
2019-03-21T06:09:51.535Z,1027.68
2019-03-21T06:10:51.528Z,1027.68
2019-03-21T06:11:51.514Z,1027.64
2019-03-21T06:12:51.513Z,1027.65
2019-03-21T06:13:51.493Z,1027.63
2019-03-21T06:14:51.509Z,1027.66
2019-03-21T06:15:51.471Z,1027.69
2019-03-21T06:16:51.462Z,1027.69
2019-03-21T06:17:51.487Z,1027.74
2019-03-21T06:18:51.442Z,1027.74
2019-03-21T06:19:51.430Z,1027.77
2019-03-21T06:20:51.418Z,1027.81
2019-03-21T06:21:51.408Z,1027.79
2019-03-21T06:22:51.410Z,1027.82
2019-03-21T06:23:51.395Z,1027.81
2019-03-21T06:24:51.374Z,1027.81
2019-03-21T06:25:51.374Z,1027.84
2019-03-21T06:26:51.358Z,1027.83
2019-03-21T06:27:51.346Z,1027.87
2019-03-21T06:28:51.381Z,1027.85
2019-03-21T06:29:51.326Z,1027.84
2019-03-21T06:30:51.315Z,1027.85
2019-03-21T06:31:51.301Z,1027.87
2019-03-21T06:32:51.296Z,1027.86
2019-03-21T06:33:51.314Z,1027.91
2019-03-21T06:34:51.271Z,1027.92
2019-03-21T06:35:51.258Z,1027.94
2019-03-21T06:36:51.251Z,1027.92
2019-03-21T06:37:51.236Z,1027.90
2019-03-21T06:38:51.225Z,1027.95
2019-03-21T06:39:51.227Z,1028.01
2019-03-21T06:40:51.203Z,1027.91
2019-03-21T06:41:51.199Z,1027.96
2019-03-21T06:42:51.183Z,1027.99
2019-03-21T06:43:51.173Z,1027.96
2019-03-21T06:44:51.178Z,1028.01
2019-03-21T06:45:51.150Z,1028.03
2019-03-21T06:46:51.140Z,1028.01
2019-03-21T06:47:53.094Z,1027.97
2019-03-21T06:48:51.121Z,1028.05
2019-03-21T06:49:51.120Z,1028.07
2019-03-21T06:50:51.100Z,1028.08
2019-03-21T06:51:51.090Z,1028.13
2019-03-21T06:52:51.077Z,1028.10
2019-03-21T06:53:51.070Z,1028.09
2019-03-21T06:54:51.069Z,1028.05
2019-03-21T06:55:51.044Z,1028.09
2019-03-21T06:56:51.033Z,1028.08
2019-03-21T06:57:51.026Z,1028.11
2019-03-21T06:58:52.660Z,1028.08
2019-03-21T06:59:51.013Z,1028.11
2019-03-21T07:00:50.991Z,1028.11
2019-03-21T07:01:50.985Z,1028.14
2019-03-21T07:02:50.972Z,1028.13
2019-03-21T07:03:50.964Z,1028.15
2019-03-21T07:04:50.967Z,1028.19
2019-03-21T07:05:50.941Z,1028.16
2019-03-21T07:06:50.928Z,1028.18
2019-03-21T07:07:50.922Z,1028.22
2019-03-21T07:08:50.905Z,1028.22
2019-03-21T07:09:50.906Z,1028.25
2019-03-21T07:10:50.890Z,1028.22
2019-03-21T07:11:50.876Z,1028.29
2019-03-21T07:12:50.862Z,1028.25
2019-03-21T07:13:50.854Z,1028.28
2019-03-21T07:14:50.853Z,1028.30
2019-03-21T07:15:50.830Z,1028.32
2019-03-21T07:16:59.999Z,1028.29
2019-03-21T07:17:51.809Z,1028.31
2019-03-21T07:18:50.801Z,1028.34
2019-03-21T07:19:51.086Z,1028.35
2019-03-21T07:20:50.777Z,1028.34
2019-03-21T07:21:50.766Z,1028.33
2019-03-21T07:22:50.755Z,1028.31
2019-03-21T07:23:50.745Z,1028.36
2019-03-21T07:24:50.736Z,1028.36
2019-03-21T07:25:50.731Z,1028.34
2019-03-21T07:26:50.713Z,1028.39
2019-03-21T07:27:50.702Z,1028.35
2019-03-21T07:28:50.691Z,1028.38
2019-03-21T07:29:50.680Z,1028.42
2019-03-21T07:30:50.680Z,1028.42
2019-03-21T07:31:50.659Z,1028.40
2019-03-21T07:32:50.650Z,1028.42
2019-03-21T07:33:50.637Z,1028.42
2019-03-21T07:34:50.629Z,1028.42
2019-03-21T07:35:50.624Z,1028.44
2019-03-21T07:36:50.607Z,1028.41
2019-03-21T07:37:50.599Z,1028.44
2019-03-21T07:38:50.591Z,1028.44
2019-03-21T07:39:50.574Z,1028.46
2019-03-21T07:40:50.572Z,1028.48
2019-03-21T07:41:50.579Z,1028.49
2019-03-21T07:42:50.546Z,1028.49
2019-03-21T07:43:50.530Z,1028.50
2019-03-21T07:44:50.520Z,1028.48
2019-03-21T07:45:50.517Z,1028.52
2019-03-21T07:46:50.502Z,1028.53
2019-03-21T07:47:50.489Z,1028.53
2019-03-21T07:48:50.481Z,1028.53
2019-03-21T07:49:50.466Z,1028.51
2019-03-21T07:50:50.467Z,1028.51
2019-03-21T07:51:50.445Z,1028.53
2019-03-21T07:52:50.436Z,1028.49
2019-03-21T07:53:50.426Z,1028.52
2019-03-21T07:54:50.422Z,1028.55
2019-03-21T07:55:50.415Z,1028.55
2019-03-21T07:56:50.391Z,1028.50
2019-03-21T07:57:50.382Z,1028.58
2019-03-21T07:58:50.370Z,1028.57
2019-03-21T07:59:50.360Z,1028.51
2019-03-21T08:00:50.364Z,1028.59
2019-03-21T08:01:50.340Z,1028.52
2019-03-21T08:02:50.331Z,1028.56
2019-03-21T08:03:50.316Z,1028.55
2019-03-21T08:04:50.307Z,1028.55
2019-03-21T08:05:50.303Z,1028.57
2019-03-21T08:06:50.287Z,1028.53
2019-03-21T08:07:50.278Z,1028.53
2019-03-21T08:08:50.264Z,1028.56
2019-03-21T08:09:50.925Z,1028.54
2019-03-21T08:10:50.267Z,1028.58
2019-03-21T08:11:50.233Z,1028.52
2019-03-21T08:12:50.224Z,1028.49
2019-03-21T08:13:50.210Z,1028.50
2019-03-21T08:14:50.202Z,1028.50
2019-03-21T08:15:50.190Z,1028.51
2019-03-21T08:16:50.188Z,1028.54
2019-03-21T08:17:50.175Z,1028.54
2019-03-21T08:18:50.158Z,1028.54
2019-03-21T08:19:50.145Z,1028.52
2019-03-21T08:20:56.463Z,1028.56
2019-03-21T08:21:51.134Z,1028.57
2019-03-21T08:22:50.113Z,1028.59
2019-03-21T08:23:50.103Z,1028.58
2019-03-21T08:24:50.093Z,1028.56
2019-03-21T08:25:50.083Z,1028.62
2019-03-21T08:26:50.080Z,1028.61
2019-03-21T08:27:51.835Z,1028.57
2019-03-21T08:28:50.051Z,1028.62
2019-03-21T08:29:50.042Z,1028.62
2019-03-21T08:30:50.033Z,1028.64
2019-03-21T08:31:50.037Z,1028.61
2019-03-21T08:32:50.009Z,1028.64
2019-03-21T08:33:49.997Z,1028.68
2019-03-21T08:34:49.985Z,1028.68
2019-03-21T08:35:49.974Z,1028.65
2019-03-21T08:36:49.974Z,1028.63
2019-03-21T08:37:49.956Z,1028.65
2019-03-21T08:38:49.942Z,1028.69
2019-03-21T08:39:49.930Z,1028.65
2019-03-21T08:40:49.919Z,1028.68
2019-03-21T08:41:49.917Z,1028.65
2019-03-21T08:42:49.907Z,1028.61
2019-03-21T08:43:49.894Z,1028.68
2019-03-21T08:44:49.877Z,1028.63
2019-03-21T08:45:49.869Z,1028.62
2019-03-21T08:46:49.867Z,1028.61
2019-03-21T08:47:49.847Z,1028.60
2019-03-21T08:48:49.844Z,1028.61
2019-03-21T08:49:49.822Z,1028.70
2019-03-21T08:50:49.815Z,1028.67
2019-03-21T08:51:49.826Z,1028.70
2019-03-21T08:52:49.791Z,1028.72
2019-03-21T08:53:49.779Z,1028.69
2019-03-21T08:54:49.767Z,1028.69
2019-03-21T08:55:49.756Z,1028.72
2019-03-21T08:56:49.744Z,1028.71
2019-03-21T08:57:49.744Z,1028.75
2019-03-21T08:58:49.728Z,1028.72
2019-03-21T08:59:49.713Z,1028.76
2019-03-21T09:00:49.701Z,1028.74
2019-03-21T09:01:49.694Z,1028.78
2019-03-21T09:02:49.687Z,1028.77
2019-03-21T09:03:49.669Z,1028.78
2019-03-21T09:04:49.659Z,1028.76
2019-03-21T09:05:49.645Z,1028.79
2019-03-21T09:06:49.636Z,1028.77
2019-03-21T09:07:49.631Z,1028.72
2019-03-21T09:08:49.613Z,1028.76
2019-03-21T09:09:49.603Z,1028.74
2019-03-21T09:10:49.591Z,1028.77
2019-03-21T09:11:49.579Z,1028.71
2019-03-21T09:12:49.578Z,1028.72
2019-03-21T09:13:49.558Z,1028.62
2019-03-21T09:14:49.546Z,1028.66
2019-03-21T09:15:49.535Z,1028.66
2019-03-21T09:16:49.527Z,1028.73
2019-03-21T09:17:49.536Z,1028.70
2019-03-21T09:18:49.502Z,1028.76
2019-03-21T09:19:49.490Z,1028.68
2019-03-21T09:20:49.480Z,1028.74
2019-03-21T09:21:49.472Z,1028.73
2019-03-21T09:22:49.467Z,1028.71
2019-03-21T09:23:49.454Z,1028.67
2019-03-21T09:24:49.436Z,1028.64
2019-03-21T09:25:51.320Z,1028.68
2019-03-21T09:26:49.411Z,1028.69
2019-03-21T09:27:49.400Z,1028.68
2019-03-21T09:28:49.401Z,1028.65
2019-03-21T09:29:53.736Z,1028.65
2019-03-21T09:30:50.645Z,1028.60
2019-03-21T09:31:49.357Z,1028.65
2019-03-21T09:32:49.345Z,1028.64
2019-03-21T09:33:49.347Z,1028.70
2019-03-21T09:34:49.323Z,1028.70
2019-03-21T09:35:49.313Z,1028.70
2019-03-21T09:36:49.301Z,1028.76
2019-03-21T09:37:49.289Z,1028.70
2019-03-21T09:38:49.290Z,1028.72
2019-03-21T09:39:49.291Z,1028.72
2019-03-21T09:40:49.257Z,1028.61
2019-03-21T09:41:49.245Z,1028.66
2019-03-21T09:42:49.234Z,1028.60
2019-03-21T09:43:49.239Z,1028.59
2019-03-21T09:44:49.218Z,1028.59
2019-03-21T09:45:49.199Z,1028.60
2019-03-21T09:46:51.065Z,1028.59
2019-03-21T09:47:49.178Z,1028.56
2019-03-21T09:48:49.176Z,1028.57
2019-03-21T09:49:49.155Z,1028.56
2019-03-21T09:50:49.143Z,1028.54
2019-03-21T09:51:49.132Z,1028.56
2019-03-21T09:52:49.122Z,1028.59
2019-03-21T09:53:49.135Z,1028.56
2019-03-21T09:54:49.098Z,1028.58
2019-03-21T09:55:49.088Z,1028.57
2019-03-21T09:56:49.085Z,1028.57
2019-03-21T09:57:49.066Z,1028.55
2019-03-21T09:58:49.054Z,1028.58
2019-03-21T09:59:49.103Z,1028.54
2019-03-21T10:00:49.047Z,1028.56
2019-03-21T10:01:49.027Z,1028.55
2019-03-21T10:02:49.010Z,1028.48
2019-03-21T10:03:48.999Z,1028.52
2019-03-21T10:04:48.996Z,1028.54
2019-03-21T10:05:48.978Z,1028.50
2019-03-21T10:06:49.026Z,1028.50
2019-03-21T10:07:48.956Z,1028.48
2019-03-21T10:08:48.944Z,1028.50
2019-03-21T10:09:48.940Z,1028.46
2019-03-21T10:10:48.923Z,1028.47
2019-03-21T10:11:48.930Z,1028.48
2019-03-21T10:12:48.899Z,1028.49
2019-03-21T10:13:48.892Z,1028.43
2019-03-21T10:14:48.888Z,1028.46
2019-03-21T10:15:48.867Z,1028.47
2019-03-21T10:16:48.855Z,1028.47
2019-03-21T10:17:48.845Z,1028.48
2019-03-21T10:18:48.843Z,1028.49
2019-03-21T10:19:48.829Z,1028.46
2019-03-21T10:20:48.811Z,1028.53
2019-03-21T10:21:48.800Z,1028.46
2019-03-21T10:22:48.789Z,1028.47
2019-03-21T10:23:48.777Z,1028.48
2019-03-21T10:24:48.776Z,1028.52
2019-03-21T10:25:48.756Z,1028.55
2019-03-21T10:26:48.743Z,1028.55
2019-03-21T10:27:48.733Z,1028.55
2019-03-21T10:28:48.721Z,1028.53
2019-03-21T10:29:48.739Z,1028.58
2019-03-21T10:30:48.700Z,1028.57
2019-03-21T10:31:48.690Z,1028.53
2019-03-21T10:32:48.677Z,1028.57
2019-03-21T10:33:48.668Z,1028.57
2019-03-21T10:34:48.656Z,1028.60
2019-03-21T10:35:48.655Z,1028.60
2019-03-21T10:36:48.641Z,1028.58
2019-03-21T10:37:48.623Z,1028.59
2019-03-21T10:38:48.612Z,1028.51
2019-03-21T10:39:48.601Z,1028.53
2019-03-21T10:40:48.601Z,1028.59
2019-03-21T10:41:48.581Z,1028.55
2019-03-21T10:42:48.571Z,1028.52
2019-03-21T10:43:48.557Z,1028.53
2019-03-21T10:44:48.547Z,1028.56
2019-03-21T10:45:48.548Z,1028.57
2019-03-21T10:46:48.524Z,1028.52
2019-03-21T10:47:48.514Z,1028.53
2019-03-21T10:48:48.504Z,1028.50
2019-03-21T10:49:48.491Z,1028.50
2019-03-21T10:50:48.494Z,1028.49
2019-03-21T10:51:54.817Z,1028.51
2019-03-21T10:52:49.459Z,1028.53
2019-03-21T10:53:48.449Z,1028.46
2019-03-21T10:54:48.436Z,1028.53
2019-03-21T10:55:48.434Z,1028.43
2019-03-21T10:56:48.415Z,1028.51
2019-03-21T10:57:48.405Z,1028.54
2019-03-21T10:58:48.395Z,1028.49
2019-03-21T10:59:48.389Z,1028.51
2019-03-21T11:00:48.380Z,1028.46
2019-03-21T11:01:48.360Z,1028.45
2019-03-21T11:02:48.351Z,1028.43
2019-03-21T11:03:48.342Z,1028.47
2019-03-21T11:04:48.329Z,1028.47
2019-03-21T11:05:48.327Z,1028.45
2019-03-21T11:06:48.305Z,1028.45
2019-03-21T11:07:48.295Z,1028.47
2019-03-21T11:08:48.284Z,1028.50
2019-03-21T11:09:48.274Z,1028.46
2019-03-21T11:10:48.272Z,1028.45
2019-03-21T11:11:48.255Z,1028.51
2019-03-21T11:12:48.241Z,1028.56
2019-03-21T11:13:48.229Z,1028.55
2019-03-21T11:14:48.219Z,1028.53
2019-03-21T11:15:48.223Z,1028.54
2019-03-21T11:16:48.202Z,1028.53
2019-03-21T11:17:48.193Z,1028.53
2019-03-21T11:18:48.176Z,1028.51
2019-03-21T11:19:48.165Z,1028.43
2019-03-21T11:20:48.176Z,1028.44
2019-03-21T11:21:48.144Z,1028.45
2019-03-21T11:22:48.136Z,1028.42
2019-03-21T11:23:48.121Z,1028.37
2019-03-21T11:24:48.110Z,1028.41
2019-03-21T11:25:48.099Z,1028.40
2019-03-21T11:26:48.102Z,1028.37
2019-03-21T11:27:48.078Z,1028.41
2019-03-21T11:28:48.066Z,1028.33
2019-03-21T11:29:48.055Z,1028.35
2019-03-21T11:30:48.045Z,1028.32
2019-03-21T11:31:48.044Z,1028.31
2019-03-21T11:32:48.023Z,1028.32
2019-03-21T11:33:48.013Z,1028.29
2019-03-21T11:34:48.000Z,1028.27
2019-03-21T11:35:47.990Z,1028.26
2019-03-21T11:36:47.995Z,1028.25
2019-03-21T11:37:47.968Z,1028.23
2019-03-21T11:38:47.957Z,1028.26
2019-03-21T11:39:47.946Z,1028.28
2019-03-21T11:40:48.575Z,1028.25
2019-03-21T11:41:47.938Z,1028.28
2019-03-21T11:42:47.927Z,1028.26
2019-03-21T11:43:47.905Z,1028.24
2019-03-21T11:44:47.893Z,1028.22
2019-03-21T11:45:48.133Z,1028.22
2019-03-21T11:46:47.883Z,1028.18
2019-03-21T11:47:47.858Z,1028.23
2019-03-21T11:48:47.852Z,1028.23
2019-03-21T11:49:47.853Z,1028.26
2019-03-21T11:50:47.834Z,1028.23
2019-03-21T11:51:47.855Z,1028.24
2019-03-21T11:52:47.804Z,1028.27
2019-03-21T11:53:47.794Z,1028.29
2019-03-21T11:54:47.782Z,1028.25
2019-03-21T11:55:47.772Z,1028.29
2019-03-21T11:56:47.770Z,1028.26
2019-03-21T11:57:47.748Z,1028.22
2019-03-21T11:58:47.738Z,1028.23
2019-03-21T11:59:51.783Z,1028.23
2019-03-21T12:00:47.721Z,1028.17
2019-03-21T12:01:47.717Z,1028.17
2019-03-21T12:02:47.694Z,1028.15
2019-03-21T12:03:47.683Z,1028.14
2019-03-21T12:04:47.674Z,1028.12
2019-03-21T12:05:47.661Z,1028.08